Forside
METAR-TAF:

METAR-TAF

Lufthavne :

Djibouti, Djibouti

Breddekreds: 11-33N, længdekreds: 043-10E, højde: 49 m

Aktuelle vejr

Denne rapport blev lavet for 2 timer og 4 minutter siden, kl. 11:00 UTC
Vind 6 kt fra østnordøst
Temperatur 41°C
Fugtighed 30%
Tryk 1002 hPa
Sigt: 7000 m
skyfri
tåge/dis

METAR: HDAM 221100Z 06006KT 7000 HZ SKC 41/20 Q1002

Tid: 16:04 (13:04 UTC)

Vejrudsigter

Denne rapport blev lavet for 2 timer og 4 minutter siden, kl. 11:00 UTC
Foreløbig gælder fra 22 på 12 UTC til 23 på 12 UTC
Vind 16 kt fra vest
Sigt: 6000 m
tåge/dis, blæsende støv
ændring
fra 22 på 12 UTC til 22 på 16 UTC
Vind 10 kt fra øst
Sigt: 8000 m
tåge/dis
ændring
fra 22 på 16 UTC til 23 på 06 UTC
Vind 3 kt fra varierende retninger

TAF: HDAM 221100Z 2212/2312 28016KT 6000 HZ BLDU NSC BECMG 2212/2216 08010KT 8000 HZ BECMG 2216/2306 VRB03KT

Vejrobservationer og prognoser fra mere end 4000 lufthavne (METAR og TAF).

De gule og røde prikker repræsenterer de meteorologiske stationer.

Flyt musen over at se navnet på stationen.

Så klik over at se vejr observationer og prognoser.

At skifte det kort: Klik på de grønne knapper med et sort kors for at zoome ind; på den grønne knap med en bindestreg for at zoome ud; eller på de grønne pile for tilstødende kort.


METAR-TAF: